sensor_id;sensor_type;location;lat;lon;timestamp;P1;durP1;ratioP1;P2;durP2;ratioP2
34353;SDS011;20618;0.000;0.000;2023-06-10T00:02:07;18.40;;;10.93;;
34353;SDS011;20618;0.000;0.000;2023-06-10T00:04:34;13.73;;;10.25;;
34353;SDS011;20618;0.000;0.000;2023-06-10T00:07:03;14.02;;;10.68;;
34353;SDS011;20618;0.000;0.000;2023-06-10T00:09:36;16.08;;;10.68;;
34353;SDS011;20618;0.000;0.000;2023-06-10T00:12:03;13.75;;;10.45;;
34353;SDS011;20618;0.000;0.000;2023-06-10T00:14:29;14.15;;;10.25;;
34353;SDS011;20618;0.000;0.000;2023-06-10T00:16:56;12.93;;;10.68;;
34353;SDS011;20618;0.000;0.000;2023-06-10T00:19:22;14.93;;;10.15;;
34353;SDS011;20618;0.000;0.000;2023-06-10T00:21:50;14.13;;;10.23;;
34353;SDS011;20618;0.000;0.000;2023-06-10T00:24:17;12.65;;;9.73;;
34353;SDS011;20618;0.000;0.000;2023-06-10T00:26:43;12.50;;;10.27;;
34353;SDS011;20618;0.000;0.000;2023-06-10T00:29:09;16.42;;;10.60;;
34353;SDS011;20618;0.000;0.000;2023-06-10T00:31:37;15.60;;;10.52;;
34353;SDS011;20618;0.000;0.000;2023-06-10T00:34:03;13.57;;;9.98;;
34353;SDS011;20618;0.000;0.000;2023-06-10T00:36:29;14.43;;;10.57;;
34353;SDS011;20618;0.000;0.000;2023-06-10T00:38:56;14.68;;;9.65;;
34353;SDS011;20618;0.000;0.000;2023-06-10T00:41:22;15.23;;;10.45;;
34353;SDS011;20618;0.000;0.000;2023-06-10T00:43:48;13.50;;;9.77;;
34353;SDS011;20618;0.000;0.000;2023-06-10T00:46:14;15.18;;;10.43;;
34353;SDS011;20618;0.000;0.000;2023-06-10T00:48:42;16.52;;;10.75;;
34353;SDS011;20618;0.000;0.000;2023-06-10T00:51:09;16.42;;;10.40;;
34353;SDS011;20618;0.000;0.000;2023-06-10T00:53:36;14.07;;;10.15;;
34353;SDS011;20618;0.000;0.000;2023-06-10T00:56:03;12.32;;;9.52;;
34353;SDS011;20618;0.000;0.000;2023-06-10T00:58:29;15.73;;;10.20;;
34353;SDS011;20618;0.000;0.000;2023-06-10T01:00:56;14.40;;;9.88;;
34353;SDS011;20618;0.000;0.000;2023-06-10T01:03:23;14.23;;;10.70;;
34353;SDS011;20618;0.000;0.000;2023-06-10T01:06:36;12.00;;;9.85;;
34353;SDS011;20618;0.000;0.000;2023-06-10T01:11:23;14.88;;;9.50;;
34353;SDS011;20618;0.000;0.000;2023-06-10T01:13:51;13.52;;;10.30;;
34353;SDS011;20618;0.000;0.000;2023-06-10T01:16:20;14.55;;;9.93;;
34353;SDS011;20618;0.000;0.000;2023-06-10T01:18:46;11.82;;;9.27;;
34353;SDS011;20618;0.000;0.000;2023-06-10T01:21:13;13.90;;;9.82;;
34353;SDS011;20618;0.000;0.000;2023-06-10T01:23:39;13.35;;;9.95;;
34353;SDS011;20618;0.000;0.000;2023-06-10T01:26:06;15.65;;;10.20;;
34353;SDS011;20618;0.000;0.000;2023-06-10T01:28:48;13.65;;;10.25;;
34353;SDS011;20618;0.000;0.000;2023-06-10T01:33:50;15.90;;;9.82;;
34353;SDS011;20618;0.000;0.000;2023-06-10T01:36:17;13.43;;;9.90;;
34353;SDS011;20618;0.000;0.000;2023-06-10T01:38:45;14.93;;;10.18;;
34353;SDS011;20618;0.000;0.000;2023-06-10T01:41:15;13.93;;;10.10;;
34353;SDS011;20618;0.000;0.000;2023-06-10T01:43:45;12.90;;;10.18;;
34353;SDS011;20618;0.000;0.000;2023-06-10T01:46:11;14.60;;;9.97;;
34353;SDS011;20618;0.000;0.000;2023-06-10T01:48:37;14.52;;;10.05;;
34353;SDS011;20618;0.000;0.000;2023-06-10T01:51:04;13.65;;;10.00;;
34353;SDS011;20618;0.000;0.000;2023-06-10T01:53:30;14.35;;;10.48;;
34353;SDS011;20618;0.000;0.000;2023-06-10T01:55:56;12.85;;;9.85;;
34353;SDS011;20618;0.000;0.000;2023-06-10T01:58:22;12.88;;;9.48;;
34353;SDS011;20618;0.000;0.000;2023-06-10T02:00:49;13.95;;;10.00;;
34353;SDS011;20618;0.000;0.000;2023-06-10T02:03:15;11.85;;;9.52;;
34353;SDS011;20618;0.000;0.000;2023-06-10T02:05:41;12.93;;;9.98;;
34353;SDS011;20618;0.000;0.000;2023-06-10T02:08:07;13.20;;;9.50;;
34353;SDS011;20618;0.000;0.000;2023-06-10T02:10:33;11.07;;;9.82;;
34353;SDS011;20618;0.000;0.000;2023-06-10T02:12:59;11.23;;;9.60;;
34353;SDS011;20618;0.000;0.000;2023-06-10T02:15:26;14.23;;;9.30;;
34353;SDS011;20618;0.000;0.000;2023-06-10T02:17:52;13.13;;;9.35;;
34353;SDS011;20618;0.000;0.000;2023-06-10T02:20:19;12.30;;;9.90;;
34353;SDS011;20618;0.000;0.000;2023-06-10T02:22:46;12.52;;;9.45;;
34353;SDS011;20618;0.000;0.000;2023-06-10T02:25:12;13.48;;;9.27;;
34353;SDS011;20618;0.000;0.000;2023-06-10T02:27:38;13.23;;;10.13;;
34353;SDS011;20618;0.000;0.000;2023-06-10T02:30:05;10.52;;;9.07;;
34353;SDS011;20618;0.000;0.000;2023-06-10T02:32:31;12.13;;;9.38;;
34353;SDS011;20618;0.000;0.000;2023-06-10T02:34:57;11.25;;;9.13;;
34353;SDS011;20618;0.000;0.000;2023-06-10T02:37:25;15.25;;;9.32;;
34353;SDS011;20618;0.000;0.000;2023-06-10T02:39:51;14.23;;;9.68;;
34353;SDS011;20618;0.000;0.000;2023-06-10T02:42:17;14.07;;;9.68;;
34353;SDS011;20618;0.000;0.000;2023-06-10T02:44:44;12.52;;;9.07;;
34353;SDS011;20618;0.000;0.000;2023-06-10T02:47:10;13.57;;;9.65;;
34353;SDS011;20618;0.000;0.000;2023-06-10T02:49:36;12.27;;;9.27;;
34353;SDS011;20618;0.000;0.000;2023-06-10T02:52:02;10.57;;;9.00;;
34353;SDS011;20618;0.000;0.000;2023-06-10T02:54:28;12.10;;;9.30;;
34353;SDS011;20618;0.000;0.000;2023-06-10T02:56:54;10.65;;;8.82;;
34353;SDS011;20618;0.000;0.000;2023-06-10T02:59:21;12.45;;;9.93;;
34353;SDS011;20618;0.000;0.000;2023-06-10T03:01:47;12.80;;;9.35;;
34353;SDS011;20618;0.000;0.000;2023-06-10T03:04:13;9.95;;;8.93;;
34353;SDS011;20618;0.000;0.000;2023-06-10T03:06:41;11.98;;;9.38;;
34353;SDS011;20618;0.000;0.000;2023-06-10T03:09:07;10.70;;;9.20;;
34353;SDS011;20618;0.000;0.000;2023-06-10T03:11:33;10.38;;;8.80;;
34353;SDS011;20618;0.000;0.000;2023-06-10T03:14:00;10.75;;;9.23;;
34353;SDS011;20618;0.000;0.000;2023-06-10T03:16:26;13.82;;;9.60;;
34353;SDS011;20618;0.000;0.000;2023-06-10T03:18:52;13.30;;;9.23;;
34353;SDS011;20618;0.000;0.000;2023-06-10T03:21:19;12.82;;;9.07;;
34353;SDS011;20618;0.000;0.000;2023-06-10T03:23:45;13.05;;;9.50;;
34353;SDS011;20618;0.000;0.000;2023-06-10T03:26:11;10.88;;;9.75;;
34353;SDS011;20618;0.000;0.000;2023-06-10T03:28:39;10.38;;;8.85;;
34353;SDS011;20618;0.000;0.000;2023-06-10T03:31:06;10.55;;;9.25;;
34353;SDS011;20618;0.000;0.000;2023-06-10T03:33:32;12.30;;;8.63;;
34353;SDS011;20618;0.000;0.000;2023-06-10T03:35:58;11.05;;;8.90;;
34353;SDS011;20618;0.000;0.000;2023-06-10T03:38:25;13.15;;;9.00;;
34353;SDS011;20618;0.000;0.000;2023-06-10T03:40:51;11.85;;;9.45;;
34353;SDS011;20618;0.000;0.000;2023-06-10T03:43:17;10.50;;;8.93;;
34353;SDS011;20618;0.000;0.000;2023-06-10T03:45:43;11.15;;;9.27;;
34353;SDS011;20618;0.000;0.000;2023-06-10T03:48:10;11.07;;;9.32;;
34353;SDS011;20618;0.000;0.000;2023-06-10T03:50:36;10.50;;;9.25;;
34353;SDS011;20618;0.000;0.000;2023-06-10T03:53:02;11.02;;;8.98;;
34353;SDS011;20618;0.000;0.000;2023-06-10T03:55:28;10.35;;;9.02;;
34353;SDS011;20618;0.000;0.000;2023-06-10T03:57:54;11.57;;;9.50;;
34353;SDS011;20618;0.000;0.000;2023-06-10T04:00:20;12.50;;;9.23;;
34353;SDS011;20618;0.000;0.000;2023-06-10T04:02:47;11.45;;;8.93;;
34353;SDS011;20618;0.000;0.000;2023-06-10T04:05:17;12.52;;;9.40;;
34353;SDS011;20618;0.000;0.000;2023-06-10T04:07:46;11.15;;;9.23;;
34353;SDS011;20618;0.000;0.000;2023-06-10T04:10:13;9.98;;;8.52;;
34353;SDS011;20618;0.000;0.000;2023-06-10T04:12:40;10.85;;;9.35;;
34353;SDS011;20618;0.000;0.000;2023-06-10T04:15:07;12.18;;;8.95;;
34353;SDS011;20618;0.000;0.000;2023-06-10T04:17:33;11.48;;;8.75;;
34353;SDS011;20618;0.000;0.000;2023-06-10T04:20:00;10.30;;;8.77;;
34353;SDS011;20618;0.000;0.000;2023-06-10T04:22:26;9.60;;;8.63;;
34353;SDS011;20618;0.000;0.000;2023-06-10T04:24:52;12.32;;;8.82;;
34353;SDS011;20618;0.000;0.000;2023-06-10T04:27:18;12.18;;;9.13;;
34353;SDS011;20618;0.000;0.000;2023-06-10T04:29:45;13.27;;;9.32;;
34353;SDS011;20618;0.000;0.000;2023-06-10T04:32:11;12.35;;;9.13;;
34353;SDS011;20618;0.000;0.000;2023-06-10T04:34:37;10.95;;;9.00;;
34353;SDS011;20618;0.000;0.000;2023-06-10T04:37:06;11.55;;;9.05;;
34353;SDS011;20618;0.000;0.000;2023-06-10T04:39:32;10.73;;;8.93;;
34353;SDS011;20618;0.000;0.000;2023-06-10T04:41:58;10.93;;;9.05;;
34353;SDS011;20618;0.000;0.000;2023-06-10T04:44:25;10.18;;;9.07;;
34353;SDS011;20618;0.000;0.000;2023-06-10T04:46:51;11.80;;;9.20;;
34353;SDS011;20618;0.000;0.000;2023-06-10T04:49:18;9.98;;;8.75;;
34353;SDS011;20618;0.000;0.000;2023-06-10T04:51:44;12.30;;;8.88;;
34353;SDS011;20618;0.000;0.000;2023-06-10T04:54:10;12.18;;;9.20;;
34353;SDS011;20618;0.000;0.000;2023-06-10T04:56:36;10.27;;;9.05;;
34353;SDS011;20618;0.000;0.000;2023-06-10T04:59:02;9.63;;;8.63;;
34353;SDS011;20618;0.000;0.000;2023-06-10T05:01:28;10.88;;;8.45;;
34353;SDS011;20618;0.000;0.000;2023-06-10T05:03:55;13.68;;;9.10;;
34353;SDS011;20618;0.000;0.000;2023-06-10T05:06:21;10.20;;;8.68;;
34353;SDS011;20618;0.000;0.000;2023-06-10T05:08:47;10.68;;;8.50;;
34353;SDS011;20618;0.000;0.000;2023-06-10T05:11:13;13.68;;;9.35;;
34353;SDS011;20618;0.000;0.000;2023-06-10T05:13:41;11.50;;;9.00;;
34353;SDS011;20618;0.000;0.000;2023-06-10T05:16:08;12.43;;;8.85;;
34353;SDS011;20618;0.000;0.000;2023-06-10T05:18:34;11.80;;;8.98;;
34353;SDS011;20618;0.000;0.000;2023-06-10T05:21:01;12.48;;;9.07;;
34353;SDS011;20618;0.000;0.000;2023-06-10T05:23:27;11.05;;;8.90;;
34353;SDS011;20618;0.000;0.000;2023-06-10T05:25:54;10.30;;;8.65;;
34353;SDS011;20618;0.000;0.000;2023-06-10T05:28:20;10.13;;;8.10;;
34353;SDS011;20618;0.000;0.000;2023-06-10T05:30:46;11.90;;;8.82;;
34353;SDS011;20618;0.000;0.000;2023-06-10T05:33:12;10.82;;;9.07;;
34353;SDS011;20618;0.000;0.000;2023-06-10T05:35:38;11.02;;;8.43;;
34353;SDS011;20618;0.000;0.000;2023-06-10T05:38:05;11.70;;;9.00;;
34353;SDS011;20618;0.000;0.000;2023-06-10T05:40:32;8.82;;;7.93;;
34353;SDS011;20618;0.000;0.000;2023-06-10T05:42:58;9.38;;;8.18;;
34353;SDS011;20618;0.000;0.000;2023-06-10T05:45:24;11.68;;;8.90;;
34353;SDS011;20618;0.000;0.000;2023-06-10T05:47:50;11.65;;;9.35;;
34353;SDS011;20618;0.000;0.000;2023-06-10T05:50:16;11.55;;;8.60;;
34353;SDS011;20618;0.000;0.000;2023-06-10T05:52:42;12.60;;;9.43;;
34353;SDS011;20618;0.000;0.000;2023-06-10T05:55:09;12.80;;;9.43;;
34353;SDS011;20618;0.000;0.000;2023-06-10T05:57:35;13.60;;;9.02;;
34353;SDS011;20618;0.000;0.000;2023-06-10T06:00:01;13.25;;;8.95;;
34353;SDS011;20618;0.000;0.000;2023-06-10T06:02:28;13.07;;;9.63;;
34353;SDS011;20618;0.000;0.000;2023-06-10T06:04:54;11.52;;;8.98;;
34353;SDS011;20618;0.000;0.000;2023-06-10T06:07:20;10.60;;;9.05;;
34353;SDS011;20618;0.000;0.000;2023-06-10T06:09:47;12.00;;;8.77;;
34353;SDS011;20618;0.000;0.000;2023-06-10T06:12:13;10.65;;;8.65;;
34353;SDS011;20618;0.000;0.000;2023-06-10T06:14:39;11.43;;;8.65;;
34353;SDS011;20618;0.000;0.000;2023-06-10T06:17:05;10.05;;;9.02;;
34353;SDS011;20618;0.000;0.000;2023-06-10T06:19:32;12.27;;;8.88;;
34353;SDS011;20618;0.000;0.000;2023-06-10T06:21:58;11.00;;;9.18;;
34353;SDS011;20618;0.000;0.000;2023-06-10T06:24:24;11.90;;;8.85;;
34353;SDS011;20618;0.000;0.000;2023-06-10T06:26:50;11.57;;;8.48;;
34353;SDS011;20618;0.000;0.000;2023-06-10T06:29:16;9.30;;;8.27;;
34353;SDS011;20618;0.000;0.000;2023-06-10T06:31:43;10.35;;;8.40;;
34353;SDS011;20618;0.000;0.000;2023-06-10T06:34:09;11.88;;;8.50;;
34353;SDS011;20618;0.000;0.000;2023-06-10T06:36:35;10.98;;;9.48;;
34353;SDS011;20618;0.000;0.000;2023-06-10T06:39:01;9.68;;;8.73;;
34353;SDS011;20618;0.000;0.000;2023-06-10T06:41:27;9.23;;;8.32;;
34353;SDS011;20618;0.000;0.000;2023-06-10T06:43:54;10.25;;;8.68;;
34353;SDS011;20618;0.000;0.000;2023-06-10T06:46:20;9.60;;;8.57;;
34353;SDS011;20618;0.000;0.000;2023-06-10T06:48:47;11.75;;;9.18;;
34353;SDS011;20618;0.000;0.000;2023-06-10T06:51:13;9.50;;;8.50;;
34353;SDS011;20618;0.000;0.000;2023-06-10T06:53:40;9.32;;;8.48;;
34353;SDS011;20618;0.000;0.000;2023-06-10T06:56:12;10.23;;;9.00;;
34353;SDS011;20618;0.000;0.000;2023-06-10T06:58:38;10.68;;;8.80;;
34353;SDS011;20618;0.000;0.000;2023-06-10T07:01:05;9.73;;;8.73;;
34353;SDS011;20618;0.000;0.000;2023-06-10T07:03:31;10.18;;;8.55;;
34353;SDS011;20618;0.000;0.000;2023-06-10T07:05:57;9.85;;;8.43;;
34353;SDS011;20618;0.000;0.000;2023-06-10T07:08:23;10.25;;;8.57;;
34353;SDS011;20618;0.000;0.000;2023-06-10T07:10:49;11.50;;;8.98;;
34353;SDS011;20618;0.000;0.000;2023-06-10T07:13:16;11.18;;;8.73;;
34353;SDS011;20618;0.000;0.000;2023-06-10T07:15:42;11.32;;;8.60;;
34353;SDS011;20618;0.000;0.000;2023-06-10T07:18:08;9.82;;;8.82;;
34353;SDS011;20618;0.000;0.000;2023-06-10T07:20:34;9.88;;;8.70;;
34353;SDS011;20618;0.000;0.000;2023-06-10T07:23:00;9.13;;;7.97;;
34353;SDS011;20618;0.000;0.000;2023-06-10T07:25:26;10.63;;;8.52;;
34353;SDS011;20618;0.000;0.000;2023-06-10T07:27:52;9.98;;;8.25;;
34353;SDS011;20618;0.000;0.000;2023-06-10T07:30:19;9.80;;;8.32;;
34353;SDS011;20618;0.000;0.000;2023-06-10T07:32:45;10.20;;;8.02;;
34353;SDS011;20618;0.000;0.000;2023-06-10T07:35:11;11.52;;;8.90;;
34353;SDS011;20618;0.000;0.000;2023-06-10T07:37:38;9.27;;;8.25;;
34353;SDS011;20618;0.000;0.000;2023-06-10T07:40:04;8.75;;;7.82;;
34353;SDS011;20618;0.000;0.000;2023-06-10T07:42:34;9.43;;;8.25;;
34353;SDS011;20618;0.000;0.000;2023-06-10T07:45:01;9.82;;;8.75;;
34353;SDS011;20618;0.000;0.000;2023-06-10T07:47:27;9.07;;;8.07;;
34353;SDS011;20618;0.000;0.000;2023-06-10T07:49:53;9.90;;;8.57;;
34353;SDS011;20618;0.000;0.000;2023-06-10T07:52:19;9.32;;;8.32;;
34353;SDS011;20618;0.000;0.000;2023-06-10T07:54:46;11.55;;;8.73;;
34353;SDS011;20618;0.000;0.000;2023-06-10T07:57:12;9.48;;;8.38;;
34353;SDS011;20618;0.000;0.000;2023-06-10T07:59:38;9.38;;;8.38;;
34353;SDS011;20618;0.000;0.000;2023-06-10T08:02:04;8.73;;;7.70;;
34353;SDS011;20618;0.000;0.000;2023-06-10T08:04:32;9.02;;;8.02;;
34353;SDS011;20618;0.000;0.000;2023-06-10T08:07:00;10.88;;;8.55;;
34353;SDS011;20618;0.000;0.000;2023-06-10T08:09:26;8.85;;;7.95;;
34353;SDS011;20618;0.000;0.000;2023-06-10T08:11:52;9.02;;;7.82;;
34353;SDS011;20618;0.000;0.000;2023-06-10T08:14:18;9.27;;;8.07;;
34353;SDS011;20618;0.000;0.000;2023-06-10T08:16:44;9.38;;;8.35;;
34353;SDS011;20618;0.000;0.000;2023-06-10T08:19:11;9.30;;;8.40;;
34353;SDS011;20618;0.000;0.000;2023-06-10T08:21:37;8.88;;;7.97;;
34353;SDS011;20618;0.000;0.000;2023-06-10T08:24:04;8.95;;;7.97;;
34353;SDS011;20618;0.000;0.000;2023-06-10T08:26:31;9.70;;;8.43;;
34353;SDS011;20618;0.000;0.000;2023-06-10T08:28:57;9.32;;;7.90;;
34353;SDS011;20618;0.000;0.000;2023-06-10T08:31:23;8.85;;;7.93;;
34353;SDS011;20618;0.000;0.000;2023-06-10T08:33:49;8.95;;;8.10;;
34353;SDS011;20618;0.000;0.000;2023-06-10T08:36:16;9.43;;;8.15;;
34353;SDS011;20618;0.000;0.000;2023-06-10T08:38:42;8.93;;;8.02;;
34353;SDS011;20618;0.000;0.000;2023-06-10T08:41:08;9.05;;;7.97;;
34353;SDS011;20618;0.000;0.000;2023-06-10T08:46:20;9.15;;;7.80;;
34353;SDS011;20618;0.000;0.000;2023-06-10T08:48:46;9.77;;;8.70;;
34353;SDS011;20618;0.000;0.000;2023-06-10T08:51:14;9.55;;;8.55;;
34353;SDS011;20618;0.000;0.000;2023-06-10T08:53:53;9.77;;;7.78;;
34353;SDS011;20618;0.000;0.000;2023-06-10T08:56:23;8.45;;;7.63;;
34353;SDS011;20618;0.000;0.000;2023-06-10T08:58:51;10.80;;;7.72;;
34353;SDS011;20618;0.000;0.000;2023-06-10T09:01:18;8.77;;;7.82;;
34353;SDS011;20618;0.000;0.000;2023-06-10T09:03:45;8.77;;;7.88;;
34353;SDS011;20618;0.000;0.000;2023-06-10T09:06:11;8.98;;;8.07;;
34353;SDS011;20618;0.000;0.000;2023-06-10T09:08:37;8.57;;;7.65;;
34353;SDS011;20618;0.000;0.000;2023-06-10T09:11:04;8.55;;;7.65;;
34353;SDS011;20618;0.000;0.000;2023-06-10T09:13:31;9.00;;;8.10;;
34353;SDS011;20618;0.000;0.000;2023-06-10T09:15:57;9.68;;;8.23;;
34353;SDS011;20618;0.000;0.000;2023-06-10T09:18:26;8.50;;;7.70;;
34353;SDS011;20618;0.000;0.000;2023-06-10T09:20:52;9.88;;;7.68;;
34353;SDS011;20618;0.000;0.000;2023-06-10T09:23:19;9.40;;;7.85;;
34353;SDS011;20618;0.000;0.000;2023-06-10T09:25:45;8.93;;;8.02;;
34353;SDS011;20618;0.000;0.000;2023-06-10T09:28:14;8.65;;;7.75;;
34353;SDS011;20618;0.000;0.000;2023-06-10T09:30:41;9.90;;;7.70;;
34353;SDS011;20618;0.000;0.000;2023-06-10T09:33:11;8.88;;;7.97;;
34353;SDS011;20618;0.000;0.000;2023-06-10T09:35:37;9.55;;;7.35;;
34353;SDS011;20618;0.000;0.000;2023-06-10T09:38:10;8.45;;;7.65;;
34353;SDS011;20618;0.000;0.000;2023-06-10T09:40:48;8.73;;;7.65;;
34353;SDS011;20618;0.000;0.000;2023-06-10T09:43:14;9.45;;;8.05;;
34353;SDS011;20618;0.000;0.000;2023-06-10T09:45:40;8.70;;;7.80;;
34353;SDS011;20618;0.000;0.000;2023-06-10T09:48:08;9.40;;;8.50;;
34353;SDS011;20618;0.000;0.000;2023-06-10T09:50:34;8.32;;;7.47;;
34353;SDS011;20618;0.000;0.000;2023-06-10T09:53:00;8.63;;;7.82;;
34353;SDS011;20618;0.000;0.000;2023-06-10T09:55:30;9.32;;;8.32;;
34353;SDS011;20618;0.000;0.000;2023-06-10T09:57:59;8.18;;;7.38;;
34353;SDS011;20618;0.000;0.000;2023-06-10T10:00:25;8.85;;;7.80;;
34353;SDS011;20618;0.000;0.000;2023-06-10T10:02:52;8.05;;;7.32;;
34353;SDS011;20618;0.000;0.000;2023-06-10T10:05:19;8.80;;;7.90;;
34353;SDS011;20618;0.000;0.000;2023-06-10T10:07:46;8.52;;;7.65;;
34353;SDS011;20618;0.000;0.000;2023-06-10T10:10:13;8.25;;;7.45;;
34353;SDS011;20618;0.000;0.000;2023-06-10T10:12:40;7.90;;;7.20;;
34353;SDS011;20618;0.000;0.000;2023-06-10T10:15:09;9.68;;;7.70;;
34353;SDS011;20618;0.000;0.000;2023-06-10T10:17:58;8.43;;;7.53;;
34353;SDS011;20618;0.000;0.000;2023-06-10T10:20:24;8.90;;;7.75;;
34353;SDS011;20618;0.000;0.000;2023-06-10T10:22:52;8.77;;;7.75;;
34353;SDS011;20618;0.000;0.000;2023-06-10T10:25:23;8.98;;;7.45;;
34353;SDS011;20618;0.000;0.000;2023-06-10T10:27:59;7.78;;;7.00;;
34353;SDS011;20618;0.000;0.000;2023-06-10T10:30:28;9.45;;;7.90;;
34353;SDS011;20618;0.000;0.000;2023-06-10T10:33:05;8.50;;;7.70;;
34353;SDS011;20618;0.000;0.000;2023-06-10T10:35:34;8.82;;;7.53;;
34353;SDS011;20618;0.000;0.000;2023-06-10T10:38:02;8.52;;;7.63;;
34353;SDS011;20618;0.000;0.000;2023-06-10T10:40:28;8.57;;;7.57;;
34353;SDS011;20618;0.000;0.000;2023-06-10T10:42:55;7.95;;;6.97;;
34353;SDS011;20618;0.000;0.000;2023-06-10T10:45:22;8.43;;;7.63;;
34353;SDS011;20618;0.000;0.000;2023-06-10T10:47:51;9.13;;;7.65;;
34353;SDS011;20618;0.000;0.000;2023-06-10T10:50:18;7.95;;;7.18;;
34353;SDS011;20618;0.000;0.000;2023-06-10T10:52:52;9.18;;;8.10;;
34353;SDS011;20618;0.000;0.000;2023-06-10T10:55:19;8.27;;;7.47;;
34353;SDS011;20618;0.000;0.000;2023-06-10T10:57:53;8.43;;;7.53;;
34353;SDS011;20618;0.000;0.000;2023-06-10T11:01:05;7.97;;;6.90;;
34353;SDS011;20618;0.000;0.000;2023-06-10T11:03:06;8.55;;;7.75;;
34353;SDS011;20618;0.000;0.000;2023-06-10T11:05:45;8.35;;;7.55;;
34353;SDS011;20618;0.000;0.000;2023-06-10T11:10:56;8.80;;;7.40;;
34353;SDS011;20618;0.000;0.000;2023-06-10T11:13:22;8.38;;;7.57;;
34353;SDS011;20618;0.000;0.000;2023-06-10T11:15:49;7.88;;;7.05;;
34353;SDS011;20618;0.000;0.000;2023-06-10T11:18:34;8.38;;;7.18;;
34353;SDS011;20618;0.000;0.000;2023-06-10T11:21:04;8.52;;;7.63;;
34353;SDS011;20618;0.000;0.000;2023-06-10T11:23:40;8.23;;;7.38;;
34353;SDS011;20618;0.000;0.000;2023-06-10T11:28:39;8.43;;;7.55;;
34353;SDS011;20618;0.000;0.000;2023-06-10T11:31:05;7.85;;;7.05;;
34353;SDS011;20618;0.000;0.000;2023-06-10T11:33:32;8.40;;;7.57;;
34353;SDS011;20618;0.000;0.000;2023-06-10T11:35:58;8.48;;;7.15;;
34353;SDS011;20618;0.000;0.000;2023-06-10T11:38:25;8.65;;;7.75;;
34353;SDS011;20618;0.000;0.000;2023-06-10T11:40:51;8.65;;;7.85;;
34353;SDS011;20618;0.000;0.000;2023-06-10T11:43:17;8.32;;;7.53;;
34353;SDS011;20618;0.000;0.000;2023-06-10T11:45:44;8.35;;;7.55;;
34353;SDS011;20618;0.000;0.000;2023-06-10T11:48:10;8.48;;;7.32;;
34353;SDS011;20618;0.000;0.000;2023-06-10T11:50:36;8.95;;;7.97;;
34353;SDS011;20618;0.000;0.000;2023-06-10T11:53:03;8.27;;;7.47;;
34353;SDS011;20618;0.000;0.000;2023-06-10T11:55:45;7.88;;;7.10;;
34353;SDS011;20618;0.000;0.000;2023-06-10T11:58:18;8.95;;;8.05;;
34353;SDS011;20618;0.000;0.000;2023-06-10T12:00:48;8.98;;;7.15;;
34353;SDS011;20618;0.000;0.000;2023-06-10T12:03:15;9.93;;;7.97;;
34353;SDS011;20618;0.000;0.000;2023-06-10T12:06:03;8.38;;;7.50;;
34353;SDS011;20618;0.000;0.000;2023-06-10T12:08:30;8.35;;;7.45;;
34353;SDS011;20618;0.000;0.000;2023-06-10T12:10:56;8.25;;;7.47;;
34353;SDS011;20618;0.000;0.000;2023-06-10T12:13:26;7.88;;;7.07;;
34353;SDS011;20618;0.000;0.000;2023-06-10T12:15:52;8.48;;;7.55;;
34353;SDS011;20618;0.000;0.000;2023-06-10T12:18:22;9.48;;;8.23;;
34353;SDS011;20618;0.000;0.000;2023-06-10T12:20:49;8.73;;;7.93;;
34353;SDS011;20618;0.000;0.000;2023-06-10T12:23:18;8.03;;;7.33;;
34353;SDS011;20618;0.000;0.000;2023-06-10T12:25:55;8.32;;;7.53;;
34353;SDS011;20618;0.000;0.000;2023-06-10T12:28:21;8.07;;;7.28;;
34353;SDS011;20618;0.000;0.000;2023-06-10T12:30:48;8.38;;;7.57;;
34353;SDS011;20618;0.000;0.000;2023-06-10T12:33:17;8.88;;;7.97;;
34353;SDS011;20618;0.000;0.000;2023-06-10T12:35:51;8.43;;;7.57;;
34353;SDS011;20618;0.000;0.000;2023-06-10T12:38:21;8.65;;;7.85;;
34353;SDS011;20618;0.000;0.000;2023-06-10T12:40:49;8.25;;;7.45;;
34353;SDS011;20618;0.000;0.000;2023-06-10T12:43:25;9.23;;;7.72;;
34353;SDS011;20618;0.000;0.000;2023-06-10T12:45:51;8.50;;;7.70;;
34353;SDS011;20618;0.000;0.000;2023-06-10T12:50:43;7.90;;;7.10;;
34353;SDS011;20618;0.000;0.000;2023-06-10T12:53:10;9.88;;;7.93;;
34353;SDS011;20618;0.000;0.000;2023-06-10T12:55:37;8.23;;;7.40;;
34353;SDS011;20618;0.000;0.000;2023-06-10T12:58:03;9.07;;;8.18;;
34353;SDS011;20618;0.000;0.000;2023-06-10T13:00:29;8.77;;;7.95;;
34353;SDS011;20618;0.000;0.000;2023-06-10T13:02:56;8.18;;;7.38;;
34353;SDS011;20618;0.000;0.000;2023-06-10T13:05:22;9.82;;;7.63;;
34353;SDS011;20618;0.000;0.000;2023-06-10T13:07:48;8.65;;;7.70;;
34353;SDS011;20618;0.000;0.000;2023-06-10T13:10:15;8.35;;;7.60;;
34353;SDS011;20618;0.000;0.000;2023-06-10T13:12:42;8.85;;;7.90;;
34353;SDS011;20618;0.000;0.000;2023-06-10T13:15:08;8.65;;;7.72;;
34353;SDS011;20618;0.000;0.000;2023-06-10T13:17:34;8.55;;;7.75;;
34353;SDS011;20618;0.000;0.000;2023-06-10T13:20:04;8.40;;;7.70;;
34353;SDS011;20618;0.000;0.000;2023-06-10T13:22:30;8.67;;;7.87;;
34353;SDS011;20618;0.000;0.000;2023-06-10T13:24:58;9.20;;;8.30;;
34353;SDS011;20618;0.000;0.000;2023-06-10T13:27:25;8.88;;;7.88;;
34353;SDS011;20618;0.000;0.000;2023-06-10T13:29:52;8.63;;;7.78;;
34353;SDS011;20618;0.000;0.000;2023-06-10T13:32:18;8.25;;;7.45;;
34353;SDS011;20618;0.000;0.000;2023-06-10T13:34:44;8.73;;;7.82;;
34353;SDS011;20618;0.000;0.000;2023-06-10T13:37:11;8.90;;;8.00;;
34353;SDS011;20618;0.000;0.000;2023-06-10T13:39:38;9.50;;;8.30;;
34353;SDS011;20618;0.000;0.000;2023-06-10T13:42:04;8.95;;;8.05;;
34353;SDS011;20618;0.000;0.000;2023-06-10T13:44:33;9.15;;;8.15;;
34353;SDS011;20618;0.000;0.000;2023-06-10T13:47:01;8.70;;;7.90;;
34353;SDS011;20618;0.000;0.000;2023-06-10T13:49:27;8.73;;;7.88;;
34353;SDS011;20618;0.000;0.000;2023-06-10T13:51:54;8.27;;;7.47;;
34353;SDS011;20618;0.000;0.000;2023-06-10T13:54:20;8.93;;;8.10;;
34353;SDS011;20618;0.000;0.000;2023-06-10T13:56:46;8.82;;;7.57;;
34353;SDS011;20618;0.000;0.000;2023-06-10T13:59:12;9.20;;;8.00;;
34353;SDS011;20618;0.000;0.000;2023-06-10T14:01:38;8.88;;;8.07;;
34353;SDS011;20618;0.000;0.000;2023-06-10T14:04:06;9.25;;;8.35;;
34353;SDS011;20618;0.000;0.000;2023-06-10T14:06:32;8.80;;;7.97;;
34353;SDS011;20618;0.000;0.000;2023-06-10T14:08:59;9.07;;;8.18;;
34353;SDS011;20618;0.000;0.000;2023-06-10T14:11:25;8.35;;;7.60;;
34353;SDS011;20618;0.000;0.000;2023-06-10T14:13:51;8.45;;;7.55;;
34353;SDS011;20618;0.000;0.000;2023-06-10T14:16:17;9.02;;;8.13;;
34353;SDS011;20618;0.000;0.000;2023-06-10T14:18:44;8.93;;;8.05;;
34353;SDS011;20618;0.000;0.000;2023-06-10T14:21:10;8.27;;;7.50;;
34353;SDS011;20618;0.000;0.000;2023-06-10T14:23:37;9.18;;;8.35;;
34353;SDS011;20618;0.000;0.000;2023-06-10T14:26:03;9.55;;;8.55;;
34353;SDS011;20618;0.000;0.000;2023-06-10T14:28:31;8.88;;;7.95;;
34353;SDS011;20618;0.000;0.000;2023-06-10T14:30:57;9.63;;;8.63;;
34353;SDS011;20618;0.000;0.000;2023-06-10T14:33:23;8.77;;;7.97;;
34353;SDS011;20618;0.000;0.000;2023-06-10T14:35:49;8.95;;;8.05;;
34353;SDS011;20618;0.000;0.000;2023-06-10T14:38:15;9.60;;;8.60;;
34353;SDS011;20618;0.000;0.000;2023-06-10T14:40:42;8.57;;;7.70;;
34353;SDS011;20618;0.000;0.000;2023-06-10T14:43:08;9.07;;;8.18;;
34353;SDS011;20618;0.000;0.000;2023-06-10T14:45:38;8.90;;;8.00;;
34353;SDS011;20618;0.000;0.000;2023-06-10T14:48:05;10.10;;;8.32;;
34353;SDS011;20618;0.000;0.000;2023-06-10T14:50:31;8.85;;;7.95;;
34353;SDS011;20618;0.000;0.000;2023-06-10T14:52:57;9.23;;;8.27;;
34353;SDS011;20618;0.000;0.000;2023-06-10T14:55:23;9.23;;;8.32;;
34353;SDS011;20618;0.000;0.000;2023-06-10T14:57:49;9.50;;;8.50;;
34353;SDS011;20618;0.000;0.000;2023-06-10T15:00:16;10.32;;;8.55;;
34353;SDS011;20618;0.000;0.000;2023-06-10T15:02:45;9.10;;;8.30;;
34353;SDS011;20618;0.000;0.000;2023-06-10T15:05:15;9.75;;;8.32;;
34353;SDS011;20618;0.000;0.000;2023-06-10T15:07:42;9.15;;;8.25;;
34353;SDS011;20618;0.000;0.000;2023-06-10T15:10:08;9.35;;;8.45;;